sensor_id;sensor_type;location;lat;lon;timestamp;pressure;altitude;pressure_sealevel;temperature;humidity
57000;BME280;42891;50.006;21.964;2023-07-13T00:01:36;50844.41;;;-146.02;71.61
57000;BME280;42891;50.006;21.964;2023-07-13T00:05:39;50850.41;;;-146.02;71.61
57000;BME280;42891;50.006;21.964;2023-07-13T00:09:40;50848.41;;;-146.02;71.52
57000;BME280;42891;50.006;21.964;2023-07-13T00:13:42;50860.44;;;-146.02;71.53
57000;BME280;42891;50.006;21.964;2023-07-13T00:17:42;50860.44;;;-146.02;71.44
57000;BME280;42891;50.006;21.964;2023-07-13T00:21:45;50846.41;;;-146.02;71.89
57000;BME280;42891;50.006;21.964;2023-07-13T00:25:46;50862.44;;;-146.02;72.01
57000;BME280;42891;50.006;21.964;2023-07-13T00:29:46;50876.44;;;-146.02;72.13
57000;BME280;42891;50.006;21.964;2023-07-13T00:33:46;50888.47;;;-146.02;72.25
57000;BME280;42891;50.006;21.964;2023-07-13T00:37:47;50858.41;;;-146.02;72.45
57000;BME280;42891;50.006;21.964;2023-07-13T00:41:47;50846.41;;;-146.02;72.09
57000;BME280;42891;50.006;21.964;2023-07-13T00:49:48;50866.44;;;-146.02;73.24
57000;BME280;42891;50.006;21.964;2023-07-13T00:53:50;50872.44;;;-146.02;73.03
57000;BME280;42891;50.006;21.964;2023-07-13T00:57:50;50868.44;;;-146.02;73.21
57000;BME280;42891;50.006;21.964;2023-07-13T01:01:51;50834.38;;;-146.02;72.88
57000;BME280;42891;50.006;21.964;2023-07-13T01:05:52;50888.47;;;-146.02;72.65
57000;BME280;42891;50.006;21.964;2023-07-13T01:09:53;50892.47;;;-146.02;72.68
57000;BME280;42891;50.006;21.964;2023-07-13T01:13:54;50864.44;;;-146.02;72.91
57000;BME280;42891;50.006;21.964;2023-07-13T01:17:54;50878.47;;;-146.02;72.73
57000;BME280;42891;50.006;21.964;2023-07-13T01:21:55;50872.44;;;-146.02;72.78
57000;BME280;42891;50.006;21.964;2023-07-13T01:25:56;50892.47;;;-146.02;73.24
57000;BME280;42891;50.006;21.964;2023-07-13T01:29:56;50872.44;;;-146.02;73.43
57000;BME280;42891;50.006;21.964;2023-07-13T01:34:02;50894.50;;;-146.02;73.86
57000;BME280;42891;50.006;21.964;2023-07-13T01:38:02;50884.47;;;-146.02;73.67
57000;BME280;42891;50.006;21.964;2023-07-13T01:42:03;50856.41;;;-146.02;73.87
57000;BME280;42891;50.006;21.964;2023-07-13T01:46:03;50868.44;;;-146.02;73.89
57000;BME280;42891;50.006;21.964;2023-07-13T01:50:04;50856.41;;;-146.02;73.96
57000;BME280;42891;50.006;21.964;2023-07-13T01:54:04;50922.53;;;-146.02;74.25
57000;BME280;42891;50.006;21.964;2023-07-13T01:58:05;50876.44;;;-146.02;74.23
57000;BME280;42891;50.006;21.964;2023-07-13T02:02:06;50868.44;;;-146.02;74.24
57000;BME280;42891;50.006;21.964;2023-07-13T02:06:07;50862.44;;;-146.02;74.20
57000;BME280;42891;50.006;21.964;2023-07-13T02:10:08;50912.53;;;-146.02;74.08
57000;BME280;42891;50.006;21.964;2023-07-13T02:14:09;50878.47;;;-146.02;74.38
57000;BME280;42891;50.006;21.964;2023-07-13T02:18:09;50878.47;;;-146.02;74.41
57000;BME280;42891;50.006;21.964;2023-07-13T02:22:10;50844.41;;;-146.02;74.85
57000;BME280;42891;50.006;21.964;2023-07-13T02:26:10;50896.50;;;-146.02;74.52
57000;BME280;42891;50.006;21.964;2023-07-13T02:30:11;50860.44;;;-146.02;74.38
57000;BME280;42891;50.006;21.964;2023-07-13T02:34:11;50918.53;;;-146.02;74.55
57000;BME280;42891;50.006;21.964;2023-07-13T02:38:12;50898.50;;;-146.02;74.64
57000;BME280;42891;50.006;21.964;2023-07-13T02:42:12;50894.50;;;-146.02;74.50
57000;BME280;42891;50.006;21.964;2023-07-13T02:46:12;50868.44;;;-146.02;74.59
57000;BME280;42891;50.006;21.964;2023-07-13T02:50:12;50894.50;;;-146.02;74.50
57000;BME280;42891;50.006;21.964;2023-07-13T02:54:13;50878.47;;;-146.02;74.69
57000;BME280;42891;50.006;21.964;2023-07-13T02:58:13;50848.41;;;-146.02;74.90
57000;BME280;42891;50.006;21.964;2023-07-13T03:02:16;50884.47;;;-146.02;75.26
57000;BME280;42891;50.006;21.964;2023-07-13T03:06:18;50904.50;;;-146.02;75.47
57000;BME280;42891;50.006;21.964;2023-07-13T03:10:18;50892.47;;;-146.02;75.43
57000;BME280;42891;50.006;21.964;2023-07-13T03:14:19;50904.50;;;-146.02;75.38
57000;BME280;42891;50.006;21.964;2023-07-13T03:18:19;50870.44;;;-146.02;76.31
57000;BME280;42891;50.006;21.964;2023-07-13T03:22:19;50872.44;;;-146.02;76.70
57000;BME280;42891;50.006;21.964;2023-07-13T03:26:20;50884.47;;;-146.02;76.72
57000;BME280;42891;50.006;21.964;2023-07-13T03:30:20;50882.47;;;-146.02;76.99
57000;BME280;42891;50.006;21.964;2023-07-13T03:34:21;50892.47;;;-146.02;77.79
57000;BME280;42891;50.006;21.964;2023-07-13T03:38:21;50876.44;;;-146.02;78.22
57000;BME280;42891;50.006;21.964;2023-07-13T03:42:21;50882.47;;;-146.02;78.74
57000;BME280;42891;50.006;21.964;2023-07-13T03:46:22;50924.53;;;-146.02;79.32
57000;BME280;42891;50.006;21.964;2023-07-13T03:50:22;50906.50;;;-146.02;79.75
57000;BME280;42891;50.006;21.964;2023-07-13T03:54:22;50908.50;;;-146.02;80.36
57000;BME280;42891;50.006;21.964;2023-07-13T03:58:37;50908.50;;;-146.02;80.40
57000;BME280;42891;50.006;21.964;2023-07-13T04:02:38;50880.47;;;-146.02;81.53
57000;BME280;42891;50.006;21.964;2023-07-13T04:06:39;50930.56;;;-146.02;81.80
57000;BME280;42891;50.006;21.964;2023-07-13T04:10:39;50876.44;;;-146.02;81.44
57000;BME280;42891;50.006;21.964;2023-07-13T04:14:39;50890.47;;;-146.02;80.91
57000;BME280;42891;50.006;21.964;2023-07-13T04:18:40;50922.53;;;-146.02;80.39
57000;BME280;42891;50.006;21.964;2023-07-13T04:22:41;50880.47;;;-146.02;80.52
57000;BME280;42891;50.006;21.964;2023-07-13T04:26:41;50864.44;;;-146.02;80.71
57000;BME280;42891;50.006;21.964;2023-07-13T04:30:41;50900.50;;;-146.02;80.09
57000;BME280;42891;50.006;21.964;2023-07-13T04:34:42;50888.47;;;-146.02;79.87
57000;BME280;42891;50.006;21.964;2023-07-13T04:38:42;50848.41;;;-146.02;79.96
57000;BME280;42891;50.006;21.964;2023-07-13T04:42:44;50910.53;;;-146.02;80.72
57000;BME280;42891;50.006;21.964;2023-07-13T04:46:44;50870.44;;;-146.02;80.93
57000;BME280;42891;50.006;21.964;2023-07-13T04:50:45;50890.47;;;-146.02;81.98
57000;BME280;42891;50.006;21.964;2023-07-13T04:54:46;50870.44;;;-146.02;82.95
57000;BME280;42891;50.006;21.964;2023-07-13T04:58:46;50918.53;;;-146.02;82.96
57000;BME280;42891;50.006;21.964;2023-07-13T05:02:46;50858.41;;;-146.02;83.15
57000;BME280;42891;50.006;21.964;2023-07-13T05:06:47;50918.53;;;-146.02;83.27
57000;BME280;42891;50.006;21.964;2023-07-13T05:10:47;50890.47;;;-146.02;82.98
57000;BME280;42891;50.006;21.964;2023-07-13T05:14:47;50880.47;;;-146.02;82.67
57000;BME280;42891;50.006;21.964;2023-07-13T05:18:49;50888.47;;;-146.02;82.81
57000;BME280;42891;50.006;21.964;2023-07-13T05:22:49;50918.53;;;-146.02;81.90
57000;BME280;42891;50.006;21.964;2023-07-13T05:26:50;50916.53;;;-146.02;82.01
57000;BME280;42891;50.006;21.964;2023-07-13T05:30:51;50896.50;;;-146.02;81.98
57000;BME280;42891;50.006;21.964;2023-07-13T05:34:52;50904.50;;;-146.02;82.31
57000;BME280;42891;50.006;21.964;2023-07-13T05:38:52;50852.41;;;-146.02;82.06
57000;BME280;42891;50.006;21.964;2023-07-13T05:42:53;50860.44;;;-146.02;82.09
57000;BME280;42891;50.006;21.964;2023-07-13T05:46:53;50882.47;;;-146.02;81.22
57000;BME280;42891;50.006;21.964;2023-07-13T05:50:55;50916.53;;;-146.02;81.55
57000;BME280;42891;50.006;21.964;2023-07-13T05:54:55;50898.50;;;-146.02;81.49
57000;BME280;42891;50.006;21.964;2023-07-13T05:58:56;50866.44;;;-146.02;81.43
57000;BME280;42891;50.006;21.964;2023-07-13T06:02:56;50876.44;;;-146.02;81.31
57000;BME280;42891;50.006;21.964;2023-07-13T06:06:58;50840.38;;;-146.02;80.85
57000;BME280;42891;50.006;21.964;2023-07-13T06:11:09;50888.47;;;-146.02;80.16
57000;BME280;42891;50.006;21.964;2023-07-13T06:15:11;50864.44;;;-146.02;79.88
57000;BME280;42891;50.006;21.964;2023-07-13T06:19:11;50858.41;;;-146.02;79.29
57000;BME280;42891;50.006;21.964;2023-07-13T06:23:12;50862.44;;;-146.02;78.90
57000;BME280;42891;50.006;21.964;2023-07-13T06:27:12;50874.44;;;-146.02;79.90
57000;BME280;42891;50.006;21.964;2023-07-13T06:31:13;50884.47;;;-146.02;78.56
57000;BME280;42891;50.006;21.964;2023-07-13T06:35:14;50878.47;;;-146.02;78.08
57000;BME280;42891;50.006;21.964;2023-07-13T06:39:14;50880.47;;;-146.02;78.36
57000;BME280;42891;50.006;21.964;2023-07-13T06:43:14;50900.50;;;-146.02;77.77
57000;BME280;42891;50.006;21.964;2023-07-13T06:47:15;50846.41;;;-146.02;77.94
57000;BME280;42891;50.006;21.964;2023-07-13T06:51:15;50884.47;;;-146.02;77.15
57000;BME280;42891;50.006;21.964;2023-07-13T06:55:16;50906.50;;;-146.02;76.73
57000;BME280;42891;50.006;21.964;2023-07-13T06:59:16;50848.41;;;-146.02;77.66
57000;BME280;42891;50.006;21.964;2023-07-13T07:03:16;50840.38;;;-146.02;77.56
57000;BME280;42891;50.006;21.964;2023-07-13T07:07:17;50848.41;;;-146.02;76.02
57000;BME280;42891;50.006;21.964;2023-07-13T07:11:22;50860.44;;;-146.02;76.07
57000;BME280;42891;50.006;21.964;2023-07-13T07:15:23;50846.41;;;-146.02;75.79
57000;BME280;42891;50.006;21.964;2023-07-13T07:19:23;50850.41;;;-146.02;75.61
57000;BME280;42891;50.006;21.964;2023-07-13T07:23:24;50836.38;;;-146.02;74.88
57000;BME280;42891;50.006;21.964;2023-07-13T07:27:24;50842.38;;;-146.02;75.73
57000;BME280;42891;50.006;21.964;2023-07-13T07:31:25;50860.44;;;-146.02;75.83
57000;BME280;42891;50.006;21.964;2023-07-13T07:35:25;50856.41;;;-146.02;75.72
57000;BME280;42891;50.006;21.964;2023-07-13T07:39:25;50852.41;;;-146.02;76.31
57000;BME280;42891;50.006;21.964;2023-07-13T07:43:26;50840.38;;;-146.02;75.49
57000;BME280;42891;50.006;21.964;2023-07-13T07:47:26;50842.38;;;-146.02;75.64
57000;BME280;42891;50.006;21.964;2023-07-13T07:51:27;50846.41;;;-146.02;74.63
57000;BME280;42891;50.006;21.964;2023-07-13T07:55:27;50844.41;;;-146.02;73.94
57000;BME280;42891;50.006;21.964;2023-07-13T07:59:28;50818.34;;;-146.02;73.64
57000;BME280;42891;50.006;21.964;2023-07-13T08:03:28;50820.34;;;-146.02;74.81
57000;BME280;42891;50.006;21.964;2023-07-13T08:07:30;50820.34;;;-146.02;73.49
57000;BME280;42891;50.006;21.964;2023-07-13T08:11:31;50806.31;;;-146.02;74.27
57000;BME280;42891;50.006;21.964;2023-07-13T08:15:31;50832.38;;;-146.02;72.55
57000;BME280;42891;50.006;21.964;2023-07-13T08:19:31;50818.34;;;-146.02;72.56
57000;BME280;42891;50.006;21.964;2023-07-13T08:23:32;50822.34;;;-146.02;72.31
57000;BME280;42891;50.006;21.964;2023-07-13T08:27:33;50820.34;;;-146.02;70.95
57000;BME280;42891;50.006;21.964;2023-07-13T08:31:33;50804.31;;;-146.02;70.35
57000;BME280;42891;50.006;21.964;2023-07-13T08:35:34;50852.41;;;-146.02;70.62
57000;BME280;42891;50.006;21.964;2023-07-13T08:39:35;50810.34;;;-146.02;69.65
57000;BME280;42891;50.006;21.964;2023-07-13T08:43:36;50780.28;;;-146.02;68.95
57000;BME280;42891;50.006;21.964;2023-07-13T08:47:41;50810.34;;;-146.02;67.84
57000;BME280;42891;50.006;21.964;2023-07-13T08:51:54;50800.31;;;-146.02;70.10
57000;BME280;42891;50.006;21.964;2023-07-13T08:55:58;50808.34;;;-146.02;67.09
57000;BME280;42891;50.006;21.964;2023-07-13T08:59:59;50800.31;;;-146.02;65.15
57000;BME280;42891;50.006;21.964;2023-07-13T09:04:11;50742.22;;;-146.02;66.06
57000;BME280;42891;50.006;21.964;2023-07-13T09:16:53;50806.31;;;-146.02;65.95
57000;BME280;42891;50.006;21.964;2023-07-13T09:21:00;50816.34;;;-146.02;64.43
57000;BME280;42891;50.006;21.964;2023-07-13T09:25:27;50760.25;;;-146.02;66.46
57000;BME280;42891;50.006;21.964;2023-07-13T09:29:33;50768.25;;;-146.02;66.07
57000;BME280;42891;50.006;21.964;2023-07-13T09:33:37;50748.22;;;-146.02;63.77
57000;BME280;42891;50.006;21.964;2023-07-13T09:37:37;50782.28;;;-146.02;65.83
57000;BME280;42891;50.006;21.964;2023-07-13T09:41:54;50738.19;;;-146.02;64.96
57000;BME280;42891;50.006;21.964;2023-07-13T09:45:57;50776.28;;;-146.02;64.58
57000;BME280;42891;50.006;21.964;2023-07-13T09:50:12;50762.25;;;-146.02;66.54
57000;BME280;42891;50.006;21.964;2023-07-13T09:54:24;50768.25;;;-146.02;65.29
57000;BME280;42891;50.006;21.964;2023-07-13T09:58:25;50774.28;;;-146.02;64.73
57000;BME280;42891;50.006;21.964;2023-07-13T10:02:31;50772.25;;;-146.02;63.66
57000;BME280;42891;50.006;21.964;2023-07-13T10:06:34;50738.19;;;-146.02;64.52
57000;BME280;42891;50.006;21.964;2023-07-13T10:10:35;50776.28;;;-146.02;65.84
57000;BME280;42891;50.006;21.964;2023-07-13T10:14:36;50804.31;;;-146.02;65.16
57000;BME280;42891;50.006;21.964;2023-07-13T10:18:46;50740.22;;;-146.02;65.62
57000;BME280;42891;50.006;21.964;2023-07-13T10:27:05;50760.25;;;-146.02;64.92
57000;BME280;42891;50.006;21.964;2023-07-13T10:31:12;50770.25;;;-146.02;65.25
57000;BME280;42891;50.006;21.964;2023-07-13T10:35:15;50772.25;;;-146.02;64.23
57000;BME280;42891;50.006;21.964;2023-07-13T10:39:23;50734.19;;;-146.02;64.33
57000;BME280;42891;50.006;21.964;2023-07-13T10:43:34;50786.28;;;-146.02;62.92
57000;BME280;42891;50.006;21.964;2023-07-13T10:47:37;50774.28;;;-146.02;63.12
57000;BME280;42891;50.006;21.964;2023-07-13T10:51:39;50766.25;;;-146.02;61.48
57000;BME280;42891;50.006;21.964;2023-07-13T11:04:03;50792.31;;;-146.02;62.33
57000;BME280;42891;50.006;21.964;2023-07-13T11:20:34;50794.31;;;-146.02;62.67
57000;BME280;42891;50.006;21.964;2023-07-13T11:28:49;50780.28;;;-146.02;63.10
57000;BME280;42891;50.006;21.964;2023-07-13T11:33:28;50766.25;;;-146.02;60.84
57000;BME280;42891;50.006;21.964;2023-07-13T11:37:29;50806.31;;;-146.02;62.42
57000;BME280;42891;50.006;21.964;2023-07-13T11:41:34;50776.28;;;-146.02;63.37
57000;BME280;42891;50.006;21.964;2023-07-13T11:45:35;50788.28;;;-146.02;63.70
57000;BME280;42891;50.006;21.964;2023-07-13T11:49:48;50812.34;;;-146.02;65.57
57000;BME280;42891;50.006;21.964;2023-07-13T11:53:50;50824.34;;;-146.02;66.80
57000;BME280;42891;50.006;21.964;2023-07-13T11:57:59;50760.25;;;-146.02;68.67
57000;BME280;42891;50.006;21.964;2023-07-13T12:02:00;50846.41;;;-146.02;71.68
57000;BME280;42891;50.006;21.964;2023-07-13T12:06:06;50810.34;;;-146.02;72.58
57000;BME280;42891;50.006;21.964;2023-07-13T12:10:25;50812.34;;;-146.02;72.12
57000;BME280;42891;50.006;21.964;2023-07-13T12:14:26;50842.38;;;-146.02;72.06
57000;BME280;42891;50.006;21.964;2023-07-13T12:18:31;50850.41;;;-146.02;72.97
57000;BME280;42891;50.006;21.964;2023-07-13T12:22:34;50842.38;;;-146.02;73.99
57000;BME280;42891;50.006;21.964;2023-07-13T12:26:34;50862.44;;;-146.02;74.59
57000;BME280;42891;50.006;21.964;2023-07-13T12:30:35;50842.38;;;-146.02;74.79
57000;BME280;42891;50.006;21.964;2023-07-13T12:34:51;50862.44;;;-146.02;75.42
57000;BME280;42891;50.006;21.964;2023-07-13T12:38:51;50868.44;;;-146.02;76.95
57000;BME280;42891;50.006;21.964;2023-07-13T12:42:52;50840.38;;;-146.02;78.95
57000;BME280;42891;50.006;21.964;2023-07-13T12:46:58;50852.41;;;-146.02;77.67
57000;BME280;42891;50.006;21.964;2023-07-13T12:51:00;50874.44;;;-146.02;79.06
57000;BME280;42891;50.006;21.964;2023-07-13T12:59:04;50822.34;;;-146.02;81.69
57000;BME280;42891;50.006;21.964;2023-07-13T13:03:16;50834.38;;;-146.02;83.58
57000;BME280;42891;50.006;21.964;2023-07-13T13:07:21;50832.38;;;-146.02;81.63
57000;BME280;42891;50.006;21.964;2023-07-13T13:11:22;50862.44;;;-146.02;82.13
57000;BME280;42891;50.006;21.964;2023-07-13T13:15:23;50844.41;;;-146.02;82.71
57000;BME280;42891;50.006;21.964;2023-07-13T13:19:26;50852.41;;;-146.02;79.27
57000;BME280;42891;50.006;21.964;2023-07-13T13:23:27;50902.50;;;-146.02;78.69
57000;BME280;42891;50.006;21.964;2023-07-13T13:27:28;50834.38;;;-146.02;76.51
57000;BME280;42891;50.006;21.964;2023-07-13T13:31:29;50824.34;;;-146.02;77.05
57000;BME280;42891;50.006;21.964;2023-07-13T13:35:29;50884.47;;;-146.02;76.86
57000;BME280;42891;50.006;21.964;2023-07-13T13:39:35;50848.41;;;-146.02;76.26
57000;BME280;42891;50.006;21.964;2023-07-13T13:43:36;50868.44;;;-146.02;75.57
57000;BME280;42891;50.006;21.964;2023-07-13T13:47:36;50836.38;;;-146.02;76.17
57000;BME280;42891;50.006;21.964;2023-07-13T13:51:36;50844.41;;;-146.02;75.42
57000;BME280;42891;50.006;21.964;2023-07-13T13:55:37;50858.41;;;-146.02;75.47
57000;BME280;42891;50.006;21.964;2023-07-13T13:59:38;50834.38;;;-146.02;76.70
57000;BME280;42891;50.006;21.964;2023-07-13T14:03:40;50884.47;;;-146.02;73.29
57000;BME280;42891;50.006;21.964;2023-07-13T14:07:40;50870.44;;;-146.02;70.55
57000;BME280;42891;50.006;21.964;2023-07-13T14:11:41;50870.44;;;-146.02;70.20
57000;BME280;42891;50.006;21.964;2023-07-13T14:15:42;50874.44;;;-146.02;70.81
57000;BME280;42891;50.006;21.964;2023-07-13T14:19:42;50890.47;;;-146.02;71.27
57000;BME280;42891;50.006;21.964;2023-07-13T14:23:44;50870.44;;;-146.02;72.57
57000;BME280;42891;50.006;21.964;2023-07-13T14:27:48;50874.44;;;-146.02;72.64
57000;BME280;42891;50.006;21.964;2023-07-13T14:31:49;50876.44;;;-146.02;73.39
57000;BME280;42891;50.006;21.964;2023-07-13T14:35:50;50916.53;;;-146.02;73.39
57000;BME280;42891;50.006;21.964;2023-07-13T14:39:51;50896.50;;;-146.02;73.76
57000;BME280;42891;50.006;21.964;2023-07-13T14:43:52;50884.47;;;-146.02;74.49
57000;BME280;42891;50.006;21.964;2023-07-13T14:47:53;50868.44;;;-146.02;74.27
57000;BME280;42891;50.006;21.964;2023-07-13T14:51:55;50868.44;;;-146.02;75.00
57000;BME280;42891;50.006;21.964;2023-07-13T14:55:57;50880.47;;;-146.02;74.54
57000;BME280;42891;50.006;21.964;2023-07-13T14:59:57;50874.44;;;-146.02;75.61
57000;BME280;42891;50.006;21.964;2023-07-13T15:03:58;50890.47;;;-146.02;75.11
57000;BME280;42891;50.006;21.964;2023-07-13T15:08:01;50880.47;;;-146.02;75.60
57000;BME280;42891;50.006;21.964;2023-07-13T15:12:02;50906.50;;;-146.02;75.79
57000;BME280;42891;50.006;21.964;2023-07-13T15:16:03;50910.53;;;-146.02;75.41
57000;BME280;42891;50.006;21.964;2023-07-13T15:20:15;50884.47;;;-146.02;75.76
57000;BME280;42891;50.006;21.964;2023-07-13T15:24:16;50892.47;;;-146.02;75.13
57000;BME280;42891;50.006;21.964;2023-07-13T15:28:17;50944.59;;;-146.02;75.95
57000;BME280;42891;50.006;21.964;2023-07-13T15:32:17;50890.47;;;-146.02;75.32
57000;BME280;42891;50.006;21.964;2023-07-13T15:36:20;50876.44;;;-146.02;75.84
57000;BME280;42891;50.006;21.964;2023-07-13T15:40:20;50880.47;;;-146.02;76.13
57000;BME280;42891;50.006;21.964;2023-07-13T15:48:26;50906.50;;;-146.02;76.20
57000;BME280;42891;50.006;21.964;2023-07-13T15:52:31;50904.50;;;-146.02;76.76
57000;BME280;42891;50.006;21.964;2023-07-13T15:56:35;50870.44;;;-146.02;76.89
57000;BME280;42891;50.006;21.964;2023-07-13T16:00:36;50904.50;;;-146.02;76.20
57000;BME280;42891;50.006;21.964;2023-07-13T16:04:37;50882.47;;;-146.02;75.71
57000;BME280;42891;50.006;21.964;2023-07-13T16:08:37;50890.47;;;-146.02;76.91
57000;BME280;42891;50.006;21.964;2023-07-13T16:12:40;50922.53;;;-146.02;76.37
57000;BME280;42891;50.006;21.964;2023-07-13T16:16:41;50908.50;;;-146.02;77.05
57000;BME280;42891;50.006;21.964;2023-07-13T16:20:42;50908.50;;;-146.02;76.40
57000;BME280;42891;50.006;21.964;2023-07-13T16:24:44;50868.44;;;-146.02;76.89
57000;BME280;42891;50.006;21.964;2023-07-13T16:28:45;50912.53;;;-146.02;76.34
57000;BME280;42891;50.006;21.964;2023-07-13T16:32:45;50904.50;;;-146.02;77.34
57000;BME280;42891;50.006;21.964;2023-07-13T16:36:45;50872.44;;;-146.02;77.65
57000;BME280;42891;50.006;21.964;2023-07-13T16:40:46;50912.53;;;-146.02;78.18
57000;BME280;42891;50.006;21.964;2023-07-13T16:44:47;50924.53;;;-146.02;78.42
57000;BME280;42891;50.006;21.964;2023-07-13T16:48:47;50928.56;;;-146.02;77.66
57000;BME280;42891;50.006;21.964;2023-07-13T16:52:48;50894.50;;;-146.02;77.57
57000;BME280;42891;50.006;21.964;2023-07-13T16:56:49;50904.50;;;-146.02;77.99
57000;BME280;42891;50.006;21.964;2023-07-13T17:00:51;50924.53;;;-146.02;78.51
57000;BME280;42891;50.006;21.964;2023-07-13T17:04:52;50872.44;;;-146.02;77.86
57000;BME280;42891;50.006;21.964;2023-07-13T17:08:53;50920.53;;;-146.02;77.92
57000;BME280;42891;50.006;21.964;2023-07-13T17:12:55;50932.56;;;-146.02;78.44
57000;BME280;42891;50.006;21.964;2023-07-13T17:16:56;50896.50;;;-146.02;77.80
57000;BME280;42891;50.006;21.964;2023-07-13T17:20:56;50888.47;;;-146.02;77.73
57000;BME280;42891;50.006;21.964;2023-07-13T17:24:57;50928.56;;;-146.02;77.65
57000;BME280;42891;50.006;21.964;2023-07-13T17:28:58;50912.53;;;-146.02;77.23
57000;BME280;42891;50.006;21.964;2023-07-13T17:32:58;50924.53;;;-146.02;76.89
57000;BME280;42891;50.006;21.964;2023-07-13T17:37:03;50886.47;;;-146.02;77.18
57000;BME280;42891;50.006;21.964;2023-07-13T17:41:03;50924.53;;;-146.02;76.98
57000;BME280;42891;50.006;21.964;2023-07-13T17:45:05;50906.50;;;-146.02;77.06
57000;BME280;42891;50.006;21.964;2023-07-13T17:49:05;50916.53;;;-146.02;76.94
57000;BME280;42891;50.006;21.964;2023-07-13T17:57:07;50942.56;;;-146.02;78.27
57000;BME280;42891;50.006;21.964;2023-07-13T18:01:12;50920.53;;;-146.02;78.15
57000;BME280;42891;50.006;21.964;2023-07-13T18:05:13;50920.53;;;-146.02;77.35
57000;BME280;42891;50.006;21.964;2023-07-13T18:09:20;50928.56;;;-146.02;76.93
57000;BME280;42891;50.006;21.964;2023-07-13T18:13:21;50928.56;;;-146.02;77.03
57000;BME280;42891;50.006;21.964;2023-07-13T18:17:21;50918.53;;;-146.02;77.11
57000;BME280;42891;50.006;21.964;2023-07-13T18:21:22;50934.56;;;-146.02;77.05
57000;BME280;42891;50.006;21.964;2023-07-13T18:25:24;50912.53;;;-146.02;77.41
57000;BME280;42891;50.006;21.964;2023-07-13T18:29:25;50930.56;;;-146.02;76.96
57000;BME280;42891;50.006;21.964;2023-07-13T18:33:28;50950.59;;;-146.02;77.24
57000;BME280;42891;50.006;21.964;2023-07-13T18:37:30;50916.53;;;-146.02;77.74
57000;BME280;42891;50.006;21.964;2023-07-13T18:41:31;50920.53;;;-146.02;77.84
57000;BME280;42891;50.006;21.964;2023-07-13T18:45:32;50888.47;;;-146.02;77.76
57000;BME280;42891;50.006;21.964;2023-07-13T18:49:32;50936.56;;;-146.02;78.10
57000;BME280;42891;50.006;21.964;2023-07-13T18:53:32;50934.56;;;-146.02;78.07
57000;BME280;42891;50.006;21.964;2023-07-13T18:57:32;50988.66;;;-146.02;78.15
57000;BME280;42891;50.006;21.964;2023-07-13T19:01:35;50948.59;;;-146.02;78.03
57000;BME280;42891;50.006;21.964;2023-07-13T19:05:35;50940.56;;;-146.02;78.10
57000;BME280;42891;50.006;21.964;2023-07-13T19:09:36;50956.59;;;-146.02;78.46
57000;BME280;42891;50.006;21.964;2023-07-13T19:13:38;50978.66;;;-146.02;78.36
57000;BME280;42891;50.006;21.964;2023-07-13T19:17:38;50954.59;;;-146.02;78.22
57000;BME280;42891;50.006;21.964;2023-07-13T19:21:39;50950.59;;;-146.02;78.25
57000;BME280;42891;50.006;21.964;2023-07-13T19:25:39;50924.53;;;-146.02;78.85
57000;BME280;42891;50.006;21.964;2023-07-13T19:29:41;50938.56;;;-146.02;78.90
57000;BME280;42891;50.006;21.964;2023-07-13T19:33:41;50956.59;;;-146.02;78.60
57000;BME280;42891;50.006;21.964;2023-07-13T19:37:42;50964.63;;;-146.02;78.47
57000;BME280;42891;50.006;21.964;2023-07-13T19:41:42;50990.66;;;-146.02;78.75
57000;BME280;42891;50.006;21.964;2023-07-13T19:45:43;50924.53;;;-146.02;78.99
57000;BME280;42891;50.006;21.964;2023-07-13T19:49:44;50956.59;;;-146.02;79.55
57000;BME280;42891;50.006;21.964;2023-07-13T19:53:45;50926.53;;;-146.02;80.00
57000;BME280;42891;50.006;21.964;2023-07-13T19:57:45;50926.53;;;-146.02;79.68
57000;BME280;42891;50.006;21.964;2023-07-13T20:01:46;50926.53;;;-146.02;79.71
57000;BME280;42891;50.006;21.964;2023-07-13T20:05:47;50948.59;;;-146.02;80.05
57000;BME280;42891;50.006;21.964;2023-07-13T20:09:49;50944.59;;;-146.02;80.24
57000;BME280;42891;50.006;21.964;2023-07-13T20:13:50;50956.59;;;-146.02;80.23
57000;BME280;42891;50.006;21.964;2023-07-13T20:17:52;50954.59;;;-146.02;81.07
57000;BME280;42891;50.006;21.964;2023-07-13T20:21:53;50948.59;;;-146.02;80.82
57000;BME280;42891;50.006;21.964;2023-07-13T20:25:53;50964.63;;;-146.02;81.54
57000;BME280;42891;50.006;21.964;2023-07-13T20:29:54;50944.59;;;-146.02;81.80
57000;BME280;42891;50.006;21.964;2023-07-13T20:33:57;50962.63;;;-146.02;81.47
57000;BME280;42891;50.006;21.964;2023-07-13T20:37:58;50954.59;;;-146.02;81.07
57000;BME280;42891;50.006;21.964;2023-07-13T20:41:59;50988.66;;;-146.02;80.79
57000;BME280;42891;50.006;21.964;2023-07-13T20:46:01;50946.59;;;-146.02;80.46
57000;BME280;42891;50.006;21.964;2023-07-13T20:50:03;50976.63;;;-146.02;80.88
57000;BME280;42891;50.006;21.964;2023-07-13T20:54:15;50964.63;;;-146.02;80.72
57000;BME280;42891;50.006;21.964;2023-07-13T20:58:19;50978.66;;;-146.02;81.48
57000;BME280;42891;50.006;21.964;2023-07-13T21:06:25;50968.63;;;-146.02;81.63
57000;BME280;42891;50.006;21.964;2023-07-13T21:10:28;50942.56;;;-146.02;81.97
57000;BME280;42891;50.006;21.964;2023-07-13T21:14:29;50964.63;;;-146.02;82.26
57000;BME280;42891;50.006;21.964;2023-07-13T21:18:29;51004.69;;;-146.02;81.66
57000;BME280;42891;50.006;21.964;2023-07-13T21:22:29;51000.69;;;-146.02;81.36
57000;BME280;42891;50.006;21.964;2023-07-13T21:26:30;51000.69;;;-146.02;81.43
57000;BME280;42891;50.006;21.964;2023-07-13T21:30:38;51016.72;;;-146.02;81.15